createdAt,value
2022-08-21T00:01:19.918Z,20.91
2022-08-21T00:03:50.426Z,20.68
2022-08-21T00:06:22.068Z,20.68
2022-08-21T00:08:53.686Z,20.75
2022-08-21T00:11:24.115Z,20.67
2022-08-21T00:13:55.642Z,20.65
2022-08-21T00:16:26.158Z,20.52
2022-08-21T00:18:57.903Z,20.63
2022-08-21T00:21:28.230Z,20.63
2022-08-21T00:23:58.995Z,20.69
2022-08-21T00:26:29.553Z,20.64
2022-08-21T00:29:00.069Z,20.67
2022-08-21T00:31:32.213Z,20.83
2022-08-21T00:34:03.655Z,20.96
2022-08-21T00:36:34.743Z,20.79
2022-08-21T00:39:07.957Z,20.93
2022-08-21T00:41:39.946Z,20.64
2022-08-21T00:44:16.854Z,20.77
2022-08-21T00:46:47.366Z,20.77
2022-08-21T00:49:18.301Z,20.75
2022-08-21T00:51:54.463Z,20.77
2022-08-21T00:54:27.766Z,20.77
2022-08-21T00:57:04.164Z,20.72
2022-08-21T00:59:40.706Z,20.66
2022-08-21T01:02:11.396Z,20.55
2022-08-21T01:04:42.485Z,20.55
2022-08-21T01:07:14.158Z,20.64
2022-08-21T01:09:46.924Z,20.64
2022-08-21T01:12:17.697Z,20.62
2022-08-21T01:14:48.378Z,20.61
2022-08-21T01:17:22.078Z,20.61
2022-08-21T01:19:52.471Z,20.53
2022-08-21T01:22:22.943Z,20.53
2022-08-21T01:24:53.393Z,20.48
2022-08-21T01:27:23.816Z,20.45
2022-08-21T01:32:51.654Z,20.37
2022-08-21T01:35:22.413Z,20.30
2022-08-21T01:37:52.866Z,20.30
2022-08-21T01:40:23.758Z,20.23
2022-08-21T01:42:54.714Z,20.23
2022-08-21T01:45:25.370Z,20.23
2022-08-21T01:47:55.840Z,20.25
2022-08-21T01:50:26.308Z,20.24
2022-08-21T01:52:57.005Z,20.24
2022-08-21T01:55:27.625Z,20.29
2022-08-21T01:58:00.399Z,20.27
2022-08-21T02:00:31.140Z,20.23
2022-08-21T02:03:01.629Z,20.07
2022-08-21T02:05:32.122Z,20.16
2022-08-21T02:08:02.584Z,20.16
2022-08-21T02:10:34.306Z,20.14
2022-08-21T02:13:05.034Z,20.06
2022-08-21T02:15:36.166Z,20.06
2022-08-21T02:18:08.260Z,19.87
2022-08-21T02:20:42.964Z,20.01
2022-08-21T02:23:14.360Z,19.97
2022-08-21T02:25:45.276Z,19.91
2022-08-21T02:28:16.552Z,19.85
2022-08-21T02:30:49.127Z,19.77
2022-08-21T02:33:20.111Z,19.77
2022-08-21T02:35:51.177Z,19.75
2022-08-21T02:38:25.327Z,19.75
2022-08-21T02:40:56.843Z,19.63
2022-08-21T02:43:29.148Z,19.69
2022-08-21T02:46:04.728Z,19.74
2022-08-21T02:48:36.413Z,19.74
2022-08-21T02:51:09.721Z,19.72
2022-08-21T02:53:40.832Z,19.71
2022-08-21T02:56:14.240Z,19.63
2022-08-21T02:58:48.081Z,19.63
2022-08-21T03:01:19.171Z,19.68
2022-08-21T03:03:50.168Z,19.59
2022-08-21T03:06:23.083Z,19.59
2022-08-21T03:08:53.826Z,19.50
2022-08-21T03:11:24.288Z,19.50
2022-08-21T03:13:54.743Z,19.31
2022-08-21T03:16:25.289Z,19.25
2022-08-21T03:18:55.784Z,19.25
2022-08-21T03:21:26.234Z,19.56
2022-08-21T03:23:57.376Z,19.56
2022-08-21T03:26:28.055Z,19.29
2022-08-21T03:28:58.535Z,19.29
2022-08-21T03:31:29.095Z,19.21
2022-08-21T03:34:00.113Z,19.33
2022-08-21T03:36:30.652Z,19.35
2022-08-21T03:39:02.436Z,19.44
2022-08-21T03:41:33.400Z,19.62
2022-08-21T03:44:04.175Z,19.78
2022-08-21T03:46:34.675Z,19.78
2022-08-21T03:49:05.252Z,19.67
2022-08-21T03:51:35.581Z,19.66
2022-08-21T03:54:06.134Z,19.47
2022-08-21T03:56:36.629Z,19.47
2022-08-21T03:59:07.784Z,19.50
2022-08-21T04:01:38.317Z,19.69
2022-08-21T04:04:08.629Z,19.69
2022-08-21T04:06:39.164Z,19.69
2022-08-21T04:09:09.582Z,19.60
2022-08-21T04:11:40.071Z,19.60
2022-08-21T04:14:11.420Z,19.66
2022-08-21T04:16:42.773Z,20.08
2022-08-21T04:19:14.094Z,20.08
2022-08-21T04:21:45.978Z,20.18
2022-08-21T04:24:17.012Z,20.18
2022-08-21T04:26:50.016Z,19.91
2022-08-21T04:29:20.477Z,19.94
2022-08-21T04:31:51.775Z,20.43
2022-08-21T04:34:22.335Z,20.43
2022-08-21T04:36:56.078Z,20.45
2022-08-21T04:39:29.656Z,20.47
2022-08-21T04:41:58.572Z,20.62
2022-08-21T04:44:29.860Z,20.62
2022-08-21T04:47:00.752Z,20.84
2022-08-21T04:49:31.601Z,20.94
2022-08-21T04:52:05.371Z,20.94
2022-08-21T04:54:35.919Z,21.00
2022-08-21T04:57:12.936Z,21.03
2022-08-21T04:59:46.220Z,21.05
2022-08-21T05:02:17.694Z,21.12
2022-08-21T05:04:51.198Z,21.27
2022-08-21T05:07:42.235Z,21.27
2022-08-21T05:09:57.781Z,21.37
2022-08-21T05:12:28.434Z,21.47
2022-08-21T05:14:58.901Z,21.47
2022-08-21T05:17:29.312Z,21.65
2022-08-21T05:19:59.766Z,21.72
2022-08-21T05:22:30.202Z,21.79
2022-08-21T05:25:02.295Z,21.79
2022-08-21T05:27:37.320Z,21.96
2022-08-21T05:30:11.247Z,22.11
2022-08-21T05:32:42.525Z,22.11
2022-08-21T05:35:16.420Z,22.18
2022-08-21T05:37:47.146Z,22.30
2022-08-21T05:40:22.243Z,21.86
2022-08-21T05:42:54.571Z,22.45
2022-08-21T05:45:43.009Z,22.75
2022-08-21T05:48:01.090Z,22.84
2022-08-21T05:50:33.802Z,22.95
2022-08-21T05:53:09.977Z,22.95
2022-08-21T05:55:45.739Z,23.12
2022-08-21T05:58:16.387Z,23.37
2022-08-21T06:00:48.851Z,23.61
2022-08-21T06:03:22.539Z,23.61
2022-08-21T06:05:54.134Z,23.97
2022-08-21T06:08:26.939Z,24.40
2022-08-21T06:10:59.827Z,24.67
2022-08-21T06:13:31.440Z,24.67
2022-08-21T06:16:06.244Z,24.93
2022-08-21T06:18:39.031Z,25.64
2022-08-21T06:21:10.357Z,25.64
2022-08-21T06:23:42.315Z,25.97
2022-08-21T06:26:14.504Z,27.07
2022-08-21T06:28:45.117Z,27.09
2022-08-21T06:31:20.769Z,27.09
2022-08-21T06:33:54.636Z,27.62
2022-08-21T06:36:25.106Z,27.09
2022-08-21T06:38:57.104Z,27.02
2022-08-21T06:41:48.443Z,28.47
2022-08-21T06:44:19.246Z,28.47
2022-08-21T06:46:49.698Z,28.24
2022-08-21T06:49:21.555Z,28.24
2022-08-21T06:51:52.451Z,28.22
2022-08-21T06:54:23.000Z,28.48
2022-08-21T06:56:53.500Z,28.34
2022-08-21T06:59:23.993Z,28.34
2022-08-21T07:01:54.426Z,28.25
2022-08-21T07:04:24.806Z,28.55
2022-08-21T07:06:55.915Z,28.79
2022-08-21T07:09:26.697Z,28.70
2022-08-21T07:11:58.593Z,28.70
2022-08-21T07:14:29.054Z,28.55
2022-08-21T07:17:01.060Z,28.77
2022-08-21T07:19:32.127Z,28.77
2022-08-21T07:22:04.939Z,30.91
2022-08-21T07:24:36.081Z,30.91
2022-08-21T07:27:09.919Z,29.98
2022-08-21T07:29:38.882Z,29.42
2022-08-21T07:32:09.378Z,30.28
2022-08-21T07:34:39.749Z,31.20
2022-08-21T07:37:13.116Z,30.80
2022-08-21T07:39:43.655Z,31.36
2022-08-21T07:42:14.172Z,30.12
2022-08-21T07:44:45.338Z,30.37
2022-08-21T07:47:29.557Z,31.20
2022-08-21T07:49:50.517Z,30.23
2022-08-21T07:52:20.945Z,30.29
2022-08-21T07:54:51.714Z,31.61
2022-08-21T07:57:24.328Z,32.16
2022-08-21T07:59:57.318Z,31.88
2022-08-21T08:02:30.627Z,31.88
2022-08-21T08:05:03.714Z,31.84
2022-08-21T08:07:34.996Z,32.82
2022-08-21T08:10:07.143Z,32.46
2022-08-21T08:12:39.623Z,32.10
2022-08-21T08:15:15.779Z,32.59
2022-08-21T08:17:46.321Z,32.67
2022-08-21T08:20:18.198Z,33.18
2022-08-21T08:22:59.564Z,32.17
2022-08-21T08:25:22.858Z,33.33
2022-08-21T08:27:53.857Z,32.92
2022-08-21T08:30:24.264Z,33.08
2022-08-21T08:32:54.879Z,32.87
2022-08-21T08:35:26.497Z,33.10
2022-08-21T08:37:57.569Z,32.84
2022-08-21T08:40:40.215Z,34.05
2022-08-21T08:43:14.733Z,32.34
2022-08-21T08:45:54.373Z,33.56
2022-08-21T08:48:53.226Z,33.28
2022-08-21T08:51:43.137Z,33.28
2022-08-21T08:54:34.402Z,33.21
2022-08-21T08:57:07.753Z,32.76
2022-08-21T08:59:41.086Z,33.63
2022-08-21T09:02:18.134Z,33.41
2022-08-21T09:04:51.922Z,34.10
2022-08-21T09:07:43.368Z,35.23
2022-08-21T09:10:19.720Z,33.27
2022-08-21T09:13:07.105Z,33.27
2022-08-21T09:15:49.841Z,32.93
2022-08-21T09:24:47.841Z,34.71
2022-08-21T09:27:19.664Z,34.08
2022-08-21T09:29:52.307Z,33.82
2022-08-21T09:32:37.861Z,33.82
2022-08-21T09:35:01.065Z,34.61
2022-08-21T09:37:34.908Z,35.53
2022-08-21T09:40:08.300Z,34.40
2022-08-21T09:42:39.159Z,34.46
2022-08-21T09:45:13.067Z,35.33
2022-08-21T09:47:44.731Z,35.33
2022-08-21T09:50:18.009Z,35.21
2022-08-21T09:52:54.450Z,34.61
2022-08-21T09:58:18.752Z,35.82
2022-08-21T10:00:52.680Z,35.32
2022-08-21T10:03:23.821Z,35.32
2022-08-21T10:06:14.879Z,35.82
2022-08-21T10:08:45.301Z,35.82
2022-08-21T10:11:18.381Z,34.74
2022-08-21T10:14:02.729Z,36.06
2022-08-21T10:16:42.005Z,37.08
2022-08-21T10:19:39.124Z,36.81
2022-08-21T10:22:15.409Z,36.81
2022-08-21T10:25:00.935Z,35.24
2022-08-21T10:27:47.150Z,35.24
2022-08-21T10:30:33.034Z,35.64
2022-08-21T10:33:27.019Z,36.30
2022-08-21T10:36:12.084Z,36.03
2022-08-21T10:39:25.793Z,35.96
2022-08-21T10:41:43.951Z,37.62
2022-08-21T10:44:43.015Z,37.26
2022-08-21T10:47:16.568Z,37.39
2022-08-21T10:50:05.354Z,36.54
2022-08-21T10:53:07.939Z,37.16
2022-08-21T10:55:47.396Z,36.64
2022-08-21T10:58:32.637Z,36.64
2022-08-21T11:01:06.123Z,36.99
2022-08-21T11:03:54.417Z,36.63
2022-08-21T11:06:30.451Z,36.50
2022-08-21T11:09:12.706Z,36.50
2022-08-21T11:11:48.007Z,37.32
2022-08-21T11:14:39.304Z,37.51
2022-08-21T11:17:18.124Z,36.02
2022-08-21T11:20:06.614Z,37.53
2022-08-21T11:23:09.756Z,37.67
2022-08-21T11:25:46.632Z,36.74
2022-08-21T11:28:25.953Z,36.66
2022-08-21T11:31:09.313Z,36.44
2022-08-21T11:33:54.683Z,36.61
2022-08-21T11:36:48.106Z,36.88
2022-08-21T11:39:24.365Z,37.60
2022-08-21T11:42:08.999Z,37.62
2022-08-21T11:44:56.685Z,37.42
2022-08-21T11:47:41.938Z,37.02
2022-08-21T11:50:18.306Z,38.37
2022-08-21T11:52:54.550Z,38.37
2022-08-21T11:55:47.148Z,37.00
2022-08-21T11:58:24.968Z,37.48
2022-08-21T12:01:15.447Z,38.11
2022-08-21T12:04:01.680Z,38.13
2022-08-21T12:06:41.462Z,37.61
2022-08-21T12:09:33.239Z,36.72
2022-08-21T12:12:27.169Z,37.88
2022-08-21T12:15:21.775Z,37.88
2022-08-21T12:18:06.529Z,37.17
2022-08-21T12:20:50.544Z,36.45
2022-08-21T12:23:29.545Z,37.49
2022-08-21T12:26:26.959Z,37.64
2022-08-21T12:29:14.934Z,37.50
2022-08-21T12:32:00.098Z,37.50
2022-08-21T12:34:43.093Z,38.47
2022-08-21T12:37:37.559Z,38.12
2022-08-21T12:40:19.848Z,38.35
2022-08-21T12:43:00.589Z,37.73
2022-08-21T12:45:31.049Z,37.70
2022-08-21T12:48:12.694Z,37.70
2022-08-21T12:50:48.981Z,37.95
2022-08-21T12:53:29.702Z,37.55
2022-08-21T12:56:05.504Z,38.59
2022-08-21T12:58:35.874Z,38.59
2022-08-21T13:01:11.832Z,38.53
2022-08-21T13:03:43.257Z,38.32
2022-08-21T13:06:18.323Z,37.70
2022-08-21T13:08:51.426Z,37.70
2022-08-21T13:11:25.246Z,37.64
2022-08-21T13:14:02.462Z,37.64
2022-08-21T13:16:32.494Z,37.15
2022-08-21T13:19:10.644Z,37.17
2022-08-21T13:21:43.778Z,37.17
2022-08-21T13:24:41.723Z,37.45
2022-08-21T13:26:57.019Z,37.74
2022-08-21T13:29:30.980Z,37.74
2022-08-21T13:32:04.683Z,37.24
2022-08-21T13:34:38.131Z,37.68
2022-08-21T13:37:11.934Z,37.68
2022-08-21T13:39:42.508Z,37.43
2022-08-21T13:42:14.481Z,37.69
2022-08-21T13:44:48.018Z,35.93
2022-08-21T13:47:19.218Z,35.79
2022-08-21T13:49:57.177Z,34.14
2022-08-21T13:52:27.785Z,33.12
2022-08-21T13:55:13.499Z,33.12
2022-08-21T13:57:44.502Z,32.35
2022-08-21T14:00:18.050Z,31.91
2022-08-21T14:02:51.498Z,32.30
2022-08-21T14:05:30.923Z,32.30
2022-08-21T14:08:13.900Z,33.04
2022-08-21T14:10:48.001Z,33.27
2022-08-21T14:13:26.490Z,33.30
2022-08-21T14:16:02.571Z,33.30
2022-08-21T14:18:35.099Z,33.33
2022-08-21T14:21:07.943Z,33.15
2022-08-21T14:23:40.210Z,33.15
2022-08-21T14:26:11.168Z,33.27
2022-08-21T14:28:43.805Z,33.14
2022-08-21T14:31:17.739Z,33.26
2022-08-21T14:33:49.212Z,32.71
2022-08-21T14:36:19.954Z,32.30
2022-08-21T14:38:52.077Z,31.89
2022-08-21T14:41:25.597Z,31.89
2022-08-21T14:44:06.311Z,31.47
2022-08-21T14:46:31.917Z,31.13
2022-08-21T14:49:03.695Z,30.57
2022-08-21T14:51:34.521Z,30.41
2022-08-21T14:54:05.164Z,30.41
2022-08-21T14:56:37.089Z,30.12
2022-08-21T14:59:09.969Z,30.12
2022-08-21T15:01:41.614Z,29.97
2022-08-21T15:04:12.434Z,29.68
2022-08-21T15:06:43.017Z,29.68
2022-08-21T15:09:13.424Z,29.55
2022-08-21T15:11:45.080Z,29.42
2022-08-21T15:14:21.494Z,29.33
2022-08-21T15:16:53.145Z,29.22
2022-08-21T15:19:23.732Z,29.22
2022-08-21T15:21:54.575Z,29.15
2022-08-21T15:24:26.115Z,29.02
2022-08-21T15:26:57.356Z,29.03
2022-08-21T15:29:30.617Z,29.03
2022-08-21T15:32:06.314Z,28.78
2022-08-21T15:34:37.677Z,28.66
2022-08-21T15:37:08.395Z,28.66
2022-08-21T15:39:41.366Z,28.66
2022-08-21T15:42:12.593Z,28.63
2022-08-21T15:44:44.634Z,28.63
2022-08-21T15:47:22.830Z,28.48
2022-08-21T15:49:53.817Z,28.38
2022-08-21T15:52:24.760Z,28.38
2022-08-21T15:54:55.516Z,28.26
2022-08-21T15:57:27.666Z,28.32
2022-08-21T16:00:04.231Z,28.19
2022-08-21T16:02:35.274Z,28.19
2022-08-21T16:05:07.001Z,28.12
2022-08-21T16:07:38.234Z,28.08
2022-08-21T16:10:09.368Z,28.08
2022-08-21T16:12:55.024Z,28.02
2022-08-21T16:15:24.096Z,27.80
2022-08-21T16:17:56.311Z,27.80
2022-08-21T16:20:28.858Z,27.76
2022-08-21T16:22:59.719Z,27.69
2022-08-21T16:25:30.356Z,27.69
2022-08-21T16:28:03.624Z,27.57
2022-08-21T16:30:34.714Z,27.41
2022-08-21T16:33:07.370Z,27.39
2022-08-21T16:35:38.080Z,27.37
2022-08-21T16:38:08.920Z,27.37
2022-08-21T16:40:39.805Z,27.25
2022-08-21T16:43:10.731Z,27.13
2022-08-21T16:45:43.558Z,27.13
2022-08-21T16:48:14.072Z,27.10
2022-08-21T16:50:49.090Z,26.96
2022-08-21T16:53:17.382Z,26.98
2022-08-21T16:55:48.258Z,26.80
2022-08-21T16:58:21.637Z,26.76
2022-08-21T17:00:52.765Z,26.76
2022-08-21T17:03:28.914Z,26.76
2022-08-21T17:06:05.712Z,26.65
2022-08-21T17:08:34.598Z,26.65
2022-08-21T17:11:08.279Z,26.58
2022-08-21T17:13:39.722Z,26.50
2022-08-21T17:16:10.003Z,26.50
2022-08-21T17:18:40.375Z,26.47
2022-08-21T17:21:14.404Z,26.41
2022-08-21T17:23:44.398Z,26.41
2022-08-21T17:26:19.607Z,26.35
2022-08-21T17:28:54.719Z,26.27
2022-08-21T17:31:23.548Z,26.26
2022-08-21T17:33:58.468Z,26.25
2022-08-21T17:36:30.582Z,26.18
2022-08-21T17:39:01.127Z,26.17
2022-08-21T17:41:32.236Z,26.20
2022-08-21T17:44:05.346Z,26.12
2022-08-21T17:46:36.724Z,26.07
2022-08-21T17:49:08.566Z,26.07
2022-08-21T17:51:39.037Z,26.02
2022-08-21T17:54:09.668Z,25.95
2022-08-21T17:56:42.603Z,25.95
2022-08-21T17:59:13.473Z,25.93
2022-08-21T18:01:46.638Z,25.78
2022-08-21T18:04:17.653Z,25.78
2022-08-21T18:06:48.661Z,25.67
2022-08-21T18:09:19.298Z,25.62
2022-08-21T18:11:51.240Z,25.68
2022-08-21T18:14:24.792Z,25.63
2022-08-21T18:16:55.719Z,25.63
2022-08-21T18:19:27.934Z,25.49
2022-08-21T18:22:02.638Z,25.49
2022-08-21T18:24:30.898Z,25.53
2022-08-21T18:27:15.582Z,25.49
2022-08-21T18:29:47.784Z,25.45
2022-08-21T18:32:31.335Z,25.23
2022-08-21T18:34:58.046Z,25.39
2022-08-21T18:37:28.721Z,25.35
2022-08-21T18:39:59.399Z,25.35
2022-08-21T18:42:33.488Z,25.35
2022-08-21T18:45:05.996Z,25.23
2022-08-21T18:47:42.027Z,25.24
2022-08-21T18:50:14.756Z,25.26
2022-08-21T18:55:21.317Z,25.10
2022-08-21T18:57:52.815Z,24.96
2022-08-21T19:00:26.648Z,24.96
2022-08-21T19:02:58.840Z,24.95
2022-08-21T19:05:30.145Z,24.94
2022-08-21T19:08:00.613Z,24.92
2022-08-21T19:10:32.143Z,25.00
2022-08-21T19:13:04.110Z,24.98
2022-08-21T19:15:39.008Z,25.02
2022-08-21T19:18:12.337Z,25.02
2022-08-21T19:23:19.455Z,24.74
2022-08-21T19:25:57.316Z,24.79
2022-08-21T19:28:31.777Z,24.86
2022-08-21T19:31:10.132Z,24.86
2022-08-21T19:33:44.441Z,24.70
2022-08-21T19:36:16.308Z,24.70
2022-08-21T19:38:46.989Z,24.74
2022-08-21T19:41:20.072Z,24.85
2022-08-21T19:43:54.186Z,24.84
2022-08-21T19:46:27.664Z,24.69
2022-08-21T19:49:00.780Z,24.73
2022-08-21T19:51:32.119Z,24.71
2022-08-21T19:54:02.846Z,24.66
2022-08-21T19:56:34.423Z,24.66
2022-08-21T19:59:09.340Z,24.62
2022-08-21T20:01:40.843Z,24.61
2022-08-21T20:06:44.551Z,24.29
2022-08-21T20:09:16.025Z,24.37
2022-08-21T20:11:49.442Z,24.38
2022-08-21T20:14:22.891Z,24.38
2022-08-21T20:16:54.998Z,24.27
2022-08-21T20:19:25.615Z,24.27
2022-08-21T20:21:57.883Z,24.16
2022-08-21T20:24:29.952Z,23.96
2022-08-21T20:27:01.900Z,23.89
2022-08-21T20:29:39.241Z,23.92
2022-08-21T20:32:12.283Z,23.75
2022-08-21T20:34:45.121Z,23.82
2022-08-21T20:37:35.752Z,23.82
2022-08-21T20:39:47.007Z,23.86
2022-08-21T20:42:33.130Z,23.86
2022-08-21T20:45:08.086Z,24.03
2022-08-21T20:47:38.237Z,23.86
2022-08-21T20:50:14.062Z,23.86
2022-08-21T20:52:45.463Z,24.06
2022-08-21T20:55:18.747Z,24.06
2022-08-21T20:58:05.904Z,23.96
2022-08-21T21:00:39.627Z,23.98
2022-08-21T21:03:30.084Z,23.98
2022-08-21T21:06:00.217Z,23.94
2022-08-21T21:08:39.848Z,23.90
2022-08-21T21:11:19.068Z,23.90
2022-08-21T21:13:55.922Z,23.82
2022-08-21T21:16:30.993Z,23.85
2022-08-21T21:19:04.346Z,23.74
2022-08-21T21:21:38.392Z,23.74
2022-08-21T21:24:17.423Z,23.75
2022-08-21T21:27:12.005Z,23.76
2022-08-21T21:29:57.013Z,23.69
2022-08-21T21:32:28.255Z,23.69
2022-08-21T21:34:58.809Z,23.69
2022-08-21T21:37:32.803Z,23.66
2022-08-21T21:40:13.268Z,23.55
2022-08-21T21:42:46.949Z,23.52
2022-08-21T21:45:30.309Z,23.40
2022-08-21T21:48:12.227Z,23.40
2022-08-21T21:51:02.049Z,23.42
2022-08-21T21:53:54.419Z,23.43
2022-08-21T21:56:30.380Z,23.37
2022-08-21T22:01:57.520Z,23.38
2022-08-21T22:04:51.095Z,23.36
2022-08-21T22:07:42.127Z,23.33
2022-08-21T22:10:30.058Z,23.22
2022-08-21T22:13:27.239Z,23.30
2022-08-21T22:15:58.375Z,23.17
2022-08-21T22:18:31.798Z,23.10
2022-08-21T22:21:11.342Z,23.10
2022-08-21T22:23:50.670Z,23.08
2022-08-21T22:26:29.787Z,22.93
2022-08-21T22:29:05.581Z,22.93
2022-08-21T22:31:35.268Z,22.84
2022-08-21T22:36:59.836Z,22.78
2022-08-21T22:39:39.203Z,22.78
2022-08-21T22:42:16.428Z,22.65
2022-08-21T22:44:58.525Z,22.68
2022-08-21T22:47:34.299Z,22.57
2022-08-21T22:50:07.525Z,22.62
2022-08-21T22:52:41.400Z,22.56
2022-08-21T22:55:24.934Z,22.49
2022-08-21T22:58:10.373Z,22.49
2022-08-21T23:00:46.177Z,22.39
2022-08-21T23:03:47.027Z,22.30
2022-08-21T23:06:42.662Z,22.26
2022-08-21T23:09:36.707Z,22.12
2022-08-21T23:12:21.135Z,22.11
2022-08-21T23:14:42.986Z,22.17
2022-08-21T23:17:22.782Z,22.17
2022-08-21T23:20:29.366Z,22.11
2022-08-21T23:23:20.889Z,22.09
2022-08-21T23:26:17.648Z,22.05
2022-08-21T23:29:09.855Z,22.04
2022-08-21T23:31:48.875Z,22.04
2022-08-21T23:34:30.679Z,21.94
2022-08-21T23:37:06.690Z,21.81
2022-08-21T23:39:59.197Z,21.89
2022-08-21T23:42:45.738Z,21.81
2022-08-21T23:45:38.589Z,21.75
2022-08-21T23:48:29.842Z,21.75
2022-08-21T23:51:15.282Z,21.75
2022-08-21T23:54:05.396Z,21.76
2022-08-21T23:56:58.137Z,21.64
2022-08-21T23:59:43.980Z,21.64
